Time;durP1;ratioP1;P1;durP2;ratioP2;P2;SDS_P1;SDS_P2;PMS_P1;PMS_P2;Temp;Humidity;BMP_temperature;BMP_pressure;BME280_temperature;BME280_humidity;BME280_pressure;Samples;Min_cycle;Max_cycle;Signal;HPM_P1;HPM_P2
2023/12/28 00:01:31;;;;;;;5.78;5.47;;;12.10;99.90;;;;;;5029425;28;20037;-91
2023/12/28 00:03:56;;;;;;;5.10;4.80;;;12.10;99.90;;;;;;5029602;28;20037;-92
2023/12/28 00:06:22;;;;;;;5.63;5.32;;;12.10;99.90;;;;;;5032019;28;20059;-92
2023/12/28 00:08:48;;;;;;;4.57;4.38;;;12.10;99.90;;;;;;5028918;28;20037;-91
2023/12/28 00:11:14;;;;;;;4.90;4.63;;;12.20;99.90;;;;;;5047093;28;20102;-90
2023/12/28 00:13:40;;;;;;;5.78;5.47;;;12.10;99.90;;;;;;5045309;28;20041;-91
2023/12/28 00:16:06;;;;;;;4.40;4.20;;;12.20;99.90;;;;;;5028229;28;20053;-92
2023/12/28 00:18:31;;;;;;;5.45;5.15;;;12.30;99.90;;;;;;5029591;28;20059;-90
2023/12/28 00:20:57;;;;;;;4.15;3.95;;;12.30;99.90;;;;;;5028390;28;20394;-93
2023/12/28 00:23:23;;;;;;;4.05;3.85;;;12.20;99.90;;;;;;5028404;28;20072;-89
2023/12/28 00:25:49;;;;;;;5.50;5.20;;;12.30;99.90;;;;;;5028555;28;20055;-89
2023/12/28 00:28:17;;;;;;;4.10;3.90;;;12.30;99.90;;;;;;5027601;28;20045;-91
2023/12/28 00:30:43;;;;;;;5.13;4.85;;;12.30;99.90;;;;;;5052013;28;20052;-91
2023/12/28 00:33:09;;;;;;;3.80;3.60;;;12.40;99.90;;;;;;5049825;28;20041;-88
2023/12/28 00:35:34;;;;;;;4.03;3.83;;;12.40;99.90;;;;;;5035795;28;20048;-91
2023/12/28 00:38:00;;;;;;;3.65;3.45;;;12.50;99.90;;;;;;5048477;28;20068;-89
2023/12/28 00:40:26;;;;;;;4.20;4.00;;;12.50;99.90;;;;;;5051928;28;20060;-89
2023/12/28 00:42:55;;;;;;;3.45;3.25;;;12.50;99.90;;;;;;5033136;28;20119;-90
2023/12/28 00:45:20;;;;;;;4.80;4.60;;;12.60;99.90;;;;;;5031713;28;20135;-92
2023/12/28 00:47:51;;;;;;;4.47;4.28;;;12.50;99.90;;;;;;5029283;28;20045;-92
2023/12/28 00:50:17;;;;;;;4.00;3.80;;;12.60;99.90;;;;;;5032534;28;20518;-90
2023/12/28 00:52:43;;;;;;;4.25;4.05;;;12.60;99.90;;;;;;5031515;28;20084;-89
2023/12/28 00:55:10;;;;;;;4.35;4.15;;;12.50;99.90;;;;;;5045208;28;20040;-92
2023/12/28 00:57:35;;;;;;;3.33;3.13;;;12.40;99.90;;;;;;5049384;28;20045;-90
2023/12/28 01:00:01;;;;;;;4.50;4.30;;;12.40;99.90;;;;;;5031970;28;20455;-91
2023/12/28 01:02:27;;;;;;;4.20;4.00;;;12.40;99.90;;;;;;5035762;28;20052;-90
2023/12/28 01:04:53;;;;;;;4.25;4.05;;;12.30;99.90;;;;;;5036289;28;20037;-90
2023/12/28 01:07:19;;;;;;;4.57;4.38;;;12.30;99.90;;;;;;5035527;28;20052;-91
2023/12/28 01:09:45;;;;;;;3.35;3.15;;;12.40;99.90;;;;;;5032661;28;20098;-90
2023/12/28 01:12:10;;;;;;;4.25;4.05;;;12.40;99.90;;;;;;5033905;28;20044;-93
2023/12/28 01:14:36;;;;;;;4.15;3.95;;;12.50;99.90;;;;;;5065262;28;20413;-91
2023/12/28 01:17:02;;;;;;;4.05;3.85;;;12.40;99.90;;;;;;5031901;28;20056;-93
2023/12/28 01:19:28;;;;;;;4.45;4.25;;;12.30;99.90;;;;;;5052433;28;20082;-92
2023/12/28 01:21:54;;;;;;;3.75;3.55;;;12.30;99.90;;;;;;5035960;28;20057;-91
2023/12/28 01:24:19;;;;;;;3.85;3.65;;;12.20;99.90;;;;;;5030584;28;20052;-91
2023/12/28 01:26:45;;;;;;;3.85;3.65;;;12.20;99.90;;;;;;5028828;28;20127;-94
2023/12/28 01:29:11;;;;;;;3.20;3.10;;;12.20;99.90;;;;;;5046050;28;20036;-93
2023/12/28 01:31:38;;;;;;;3.13;3.03;;;12.20;99.90;;;;;;5026454;28;20072;-92
2023/12/28 01:34:09;;;;;;;4.25;4.05;;;12.20;99.90;;;;;;5028415;28;20165;-94
2023/12/28 01:36:35;;;;;;;4.05;3.85;;;12.20;99.90;;;;;;5029182;28;20052;-92
2023/12/28 01:39:00;;;;;;;3.90;3.70;;;12.20;99.90;;;;;;5028068;28;20504;-89
2023/12/28 01:41:26;;;;;;;4.30;4.10;;;12.20;99.90;;;;;;5048784;28;20049;-90
2023/12/28 01:43:52;;;;;;;4.07;3.88;;;12.30;99.90;;;;;;5030955;28;20412;-91
2023/12/28 01:46:20;;;;;;;3.22;3.13;;;12.30;99.90;;;;;;5029708;28;20056;-90
2023/12/28 01:48:49;;;;;;;3.50;3.30;;;12.30;99.90;;;;;;5046423;28;20037;-91
2023/12/28 01:51:16;;;;;;;4.05;3.85;;;12.20;99.90;;;;;;5030526;28;20053;-92
2023/12/28 01:53:44;;;;;;;3.25;3.15;;;12.30;99.90;;;;;;5031166;28;20074;-92
2023/12/28 01:56:14;;;;;;;2.95;2.85;;;12.40;99.90;;;;;;5029257;28;20044;-92
2023/12/28 01:58:43;;;;;;;3.53;3.33;;;12.30;99.90;;;;;;5044501;28;20083;-89
2023/12/28 02:01:10;;;;;;;3.50;3.30;;;12.30;99.90;;;;;;5046773;28;20092;-89
2023/12/28 02:03:36;;;;;;;4.15;3.95;;;12.30;99.90;;;;;;5036483;28;20472;-90
2023/12/28 02:06:03;;;;;;;3.45;3.25;;;12.40;99.90;;;;;;5034966;28;20037;-90
2023/12/28 02:08:29;;;;;;;3.85;3.65;;;12.30;99.90;;;;;;5034499;28;20032;-92
2023/12/28 02:10:57;;;;;;;3.15;3.03;;;12.40;99.90;;;;;;5033943;28;20045;-90
2023/12/28 02:13:24;;;;;;;4.18;3.97;;;12.40;99.90;;;;;;5052605;28;20494;-90
2023/12/28 02:16:09;;;;;;;3.67;3.47;;;12.30;99.90;;;;;;5047766;28;20636;-94
2023/12/28 02:18:41;;;;;;;3.60;3.40;;;12.40;99.90;;;;;;5053588;28;20048;-90
2023/12/28 02:21:08;;;;;;;3.40;3.20;;;12.40;99.90;;;;;;5050554;28;20052;-94
2023/12/28 02:23:34;;;;;;;3.15;3.05;;;12.30;99.90;;;;;;5034628;28;20041;-92
2023/12/28 02:26:00;;;;;;;4.15;3.95;;;12.40;99.90;;;;;;5033467;28;20049;-93
2023/12/28 02:28:26;;;;;;;3.75;3.55;;;12.30;99.90;;;;;;5050735;28;20559;-91
2023/12/28 02:30:55;;;;;;;3.15;3.05;;;12.40;99.90;;;;;;5032775;28;20045;-92
2023/12/28 02:33:24;;;;;;;3.15;3.05;;;12.40;99.90;;;;;;5035890;28;20732;-92
2023/12/28 02:36:06;;;;;;;3.47;3.28;;;12.40;99.90;;;;;;5050880;28;20051;-92
2023/12/28 02:38:36;;;;;;;3.75;3.55;;;12.50;99.90;;;;;;5051614;28;20127;-92
2023/12/28 02:41:03;;;;;;;4.05;3.85;;;12.40;99.90;;;;;;5033609;28;20041;-89
2023/12/28 02:43:29;;;;;;;3.75;3.55;;;12.40;99.90;;;;;;5034719;28;20628;-92
2023/12/28 02:45:55;;;;;;;3.65;3.45;;;12.40;99.90;;;;;;5034120;28;20041;-91
2023/12/28 02:48:23;;;;;;;3.40;3.20;;;12.40;99.90;;;;;;5033471;28;20413;-90
2023/12/28 02:50:49;;;;;;;3.05;2.95;;;12.50;99.90;;;;;;5028336;28;20083;-90
2023/12/28 02:53:15;;;;;;;3.03;2.92;;;12.40;99.90;;;;;;5049849;28;20072;-89
2023/12/28 02:55:41;;;;;;;3.15;3.05;;;12.40;99.90;;;;;;5034666;28;20738;-89
2023/12/28 02:58:06;;;;;;;3.85;3.65;;;12.40;99.90;;;;;;5031404;28;20113;-88
2023/12/28 03:00:32;;;;;;;3.08;2.97;;;12.50;99.90;;;;;;5032877;28;20485;-90
2023/12/28 03:02:58;;;;;;;3.75;3.55;;;12.40;99.90;;;;;;5031216;28;20044;-90
2023/12/28 03:05:23;;;;;;;3.85;3.65;;;12.50;99.90;;;;;;5033070;28;20040;-90
2023/12/28 03:07:49;;;;;;;3.50;3.30;;;12.60;99.90;;;;;;5033183;28;20101;-89
2023/12/28 03:10:15;;;;;;;3.10;3.00;;;12.60;99.90;;;;;;5032758;28;20049;-89
2023/12/28 03:12:41;;;;;;;3.95;3.75;;;12.70;99.90;;;;;;5034323;28;20169;-90
2023/12/28 03:15:07;;;;;;;4.15;3.95;;;12.70;99.90;;;;;;5034651;28;20405;-90
2023/12/28 03:17:33;;;;;;;3.67;3.47;;;12.70;99.90;;;;;;5034423;28;20052;-89
2023/12/28 03:19:59;;;;;;;4.05;3.85;;;12.80;99.90;;;;;;5033356;28;20055;-87
2023/12/28 03:22:25;;;;;;;3.75;3.55;;;12.80;99.90;;;;;;5034468;28;21742;-90
2023/12/28 03:24:51;;;;;;;3.65;3.45;;;12.80;99.90;;;;;;5047363;28;20048;-87
2023/12/28 03:27:17;;;;;;;3.80;3.60;;;12.90;99.90;;;;;;5050211;28;20059;-90
2023/12/28 03:29:43;;;;;;;3.95;3.75;;;13.00;99.90;;;;;;5029988;28;20113;-90
2023/12/28 03:32:09;;;;;;;2.92;2.83;;;12.90;99.90;;;;;;5033309;28;20060;-87
2023/12/28 03:34:35;;;;;;;4.03;3.83;;;13.00;99.90;;;;;;5049807;28;20055;-90
2023/12/28 03:37:01;;;;;;;3.75;3.55;;;13.00;99.90;;;;;;5028808;28;20041;-88
2023/12/28 03:39:26;;;;;;;3.85;3.65;;;13.00;99.90;;;;;;5065471;28;20462;-89
2023/12/28 03:41:53;;;;;;;3.65;3.45;;;13.00;99.90;;;;;;5047132;28;20126;-88
2023/12/28 03:44:20;;;;;;;3.22;3.08;;;13.00;99.90;;;;;;5032129;28;20041;-89
2023/12/28 03:46:47;;;;;;;3.65;3.45;;;13.10;99.90;;;;;;5034205;28;20033;-89
2023/12/28 03:49:18;;;;;;;3.13;3.00;;;13.10;99.90;;;;;;5048780;28;20474;-89
2023/12/28 03:51:49;;;;;;;3.42;3.25;;;13.10;99.90;;;;;;5032084;28;20123;-91
2023/12/28 03:54:19;;;;;;;3.30;3.15;;;13.10;99.90;;;;;;5063373;28;20197;-86
2023/12/28 03:56:46;;;;;;;3.28;3.13;;;13.20;99.90;;;;;;5027382;28;20498;-88
2023/12/28 03:59:12;;;;;;;3.55;3.35;;;13.20;99.90;;;;;;5048665;28;20045;-89
2023/12/28 04:01:38;;;;;;;2.63;2.53;;;13.20;99.90;;;;;;5049942;28;20048;-88
2023/12/28 04:04:04;;;;;;;3.65;3.45;;;13.10;99.90;;;;;;5052233;28;20395;-87
2023/12/28 04:06:30;;;;;;;3.55;3.35;;;13.20;99.90;;;;;;5050695;28;20494;-90
2023/12/28 04:08:55;;;;;;;3.38;3.17;;;13.20;99.90;;;;;;5035198;28;20138;-88
2023/12/28 04:11:21;;;;;;;3.30;3.15;;;13.20;99.90;;;;;;5052524;28;20090;-93
2023/12/28 04:13:50;;;;;;;3.13;3.00;;;13.30;99.90;;;;;;5035726;28;20047;-92
2023/12/28 04:16:16;;;;;;;3.45;3.25;;;13.30;99.90;;;;;;5035776;28;20048;-88
2023/12/28 04:18:43;;;;;;;3.67;3.47;;;13.20;99.90;;;;;;5067559;28;20055;-89
2023/12/28 04:21:10;;;;;;;3.03;2.92;;;13.20;99.90;;;;;;5036215;28;20478;-89
2023/12/28 04:23:36;;;;;;;2.78;2.67;;;13.20;99.90;;;;;;5035968;28;20048;-89
2023/12/28 04:26:02;;;;;;;3.50;3.30;;;13.30;99.90;;;;;;5033987;28;20053;-87
2023/12/28 04:28:28;;;;;;;3.28;3.08;;;13.30;99.90;;;;;;5037501;28;20040;-88
2023/12/28 04:30:54;;;;;;;3.38;3.17;;;13.30;99.90;;;;;;5050657;28;20517;-91
2023/12/28 04:33:20;;;;;;;3.47;3.28;;;13.30;99.90;;;;;;5053413;28;20041;-90
2023/12/28 04:35:46;;;;;;;3.78;3.58;;;13.40;99.90;;;;;;5035350;28;20523;-87
2023/12/28 04:38:12;;;;;;;3.58;3.38;;;13.40;99.90;;;;;;5034506;28;20032;-88
2023/12/28 04:40:38;;;;;;;3.47;3.28;;;13.30;99.90;;;;;;5050606;28;20040;-86
2023/12/28 04:43:04;;;;;;;3.70;3.50;;;13.40;99.90;;;;;;5050904;28;20060;-88
2023/12/28 04:45:30;;;;;;;3.47;3.28;;;13.40;99.90;;;;;;5049222;28;20162;-88
2023/12/28 04:47:55;;;;;;;3.45;3.25;;;13.40;99.90;;;;;;5034038;28;20032;-90
2023/12/28 04:50:21;;;;;;;3.25;3.05;;;13.40;99.90;;;;;;5034961;28;20044;-91
2023/12/28 04:52:47;;;;;;;3.88;3.67;;;13.40;99.90;;;;;;5034325;28;20383;-88
2023/12/28 04:55:15;;;;;;;3.95;3.75;;;13.40;99.90;;;;;;5050046;28;20072;-88
2023/12/28 04:57:42;;;;;;;3.53;3.33;;;13.40;99.90;;;;;;5053007;28;20181;-89
2023/12/28 05:00:08;;;;;;;4.05;3.85;;;13.40;99.90;;;;;;5033970;28;20038;-89
2023/12/28 05:02:34;;;;;;;3.22;3.03;;;13.30;99.90;;;;;;5033980;28;20582;-87
2023/12/28 05:05:00;;;;;;;3.30;3.10;;;13.30;99.90;;;;;;5034047;28;20045;-91
2023/12/28 05:07:26;;;;;;;3.22;3.08;;;13.30;99.90;;;;;;5035410;28;20064;-88
2023/12/28 05:09:51;;;;;;;2.85;2.75;;;13.20;99.90;;;;;;5062808;28;20040;-90
2023/12/28 05:12:17;;;;;;;3.45;3.25;;;13.30;99.90;;;;;;5032278;28;20036;-89
2023/12/28 05:14:52;;;;;;;3.30;3.10;;;13.30;99.90;;;;;;5035157;28;20567;-89
2023/12/28 05:17:18;;;;;;;3.22;3.08;;;13.40;99.90;;;;;;5051191;28;20052;-90
2023/12/28 05:19:44;;;;;;;3.15;3.03;;;13.40;99.90;;;;;;5037283;28;20048;-89
2023/12/28 05:22:12;;;;;;;3.53;3.33;;;13.40;99.90;;;;;;5037720;28;20070;-88
2023/12/28 05:24:38;;;;;;;3.20;3.00;;;13.40;99.90;;;;;;5036960;28;20049;-88
2023/12/28 05:27:04;;;;;;;3.22;3.03;;;13.40;99.90;;;;;;5036158;28;20068;-90
2023/12/28 05:29:29;;;;;;;3.22;3.03;;;13.40;99.90;;;;;;5034852;28;20127;-88
2023/12/28 05:31:55;;;;;;;3.63;3.42;;;13.50;99.90;;;;;;5033744;28;20047;-88
2023/12/28 05:34:21;;;;;;;3.45;3.25;;;13.50;99.90;;;;;;5035142;28;20560;-86
2023/12/28 05:36:46;;;;;;;3.63;3.42;;;13.50;99.90;;;;;;5049511;28;20090;-88
2023/12/28 05:39:15;;;;;;;3.55;3.35;;;13.50;99.90;;;;;;5033109;28;20041;-89
2023/12/28 05:41:41;;;;;;;3.40;3.20;;;13.60;99.90;;;;;;5032748;28;20047;-88
2023/12/28 05:44:08;;;;;;;3.60;3.40;;;13.50;99.90;;;;;;5038191;28;20056;-90
2023/12/28 05:46:34;;;;;;;3.72;3.53;;;13.60;99.90;;;;;;5037403;28;20098;-91
2023/12/28 05:48:59;;;;;;;3.75;3.55;;;13.60;99.90;;;;;;5035500;28;20440;-91
2023/12/28 05:51:25;;;;;;;3.78;3.58;;;13.50;99.90;;;;;;5050959;28;20041;-89
2023/12/28 05:53:51;;;;;;;3.40;3.20;;;13.60;99.90;;;;;;5049606;28;20060;-88
2023/12/28 05:56:20;;;;;;;3.53;3.33;;;13.60;99.90;;;;;;5035822;28;20052;-90
2023/12/28 05:58:45;;;;;;;3.67;3.47;;;13.60;99.90;;;;;;5035877;28;20048;-90
2023/12/28 06:01:11;;;;;;;3.45;3.25;;;13.70;99.90;;;;;;5034156;28;20052;-89
2023/12/28 06:03:37;;;;;;;3.63;3.42;;;13.70;99.90;;;;;;5047083;28;20041;-90
2023/12/28 06:06:03;;;;;;;3.60;3.40;;;13.70;99.90;;;;;;5035562;28;20132;-91
2023/12/28 06:08:28;;;;;;;3.65;3.45;;;13.70;99.90;;;;;;5049129;28;20209;-88
2023/12/28 06:10:54;;;;;;;3.55;3.35;;;13.70;99.90;;;;;;5049759;28;20044;-87
2023/12/28 06:13:20;;;;;;;3.55;3.35;;;13.70;99.90;;;;;;5032562;28;20405;-88
2023/12/28 06:15:45;;;;;;;3.67;3.47;;;13.70;99.90;;;;;;5048754;28;20052;-91
2023/12/28 06:18:11;;;;;;;3.22;3.03;;;13.70;99.90;;;;;;5051041;28;20406;-88
2023/12/28 06:20:40;;;;;;;3.65;3.45;;;13.80;99.90;;;;;;5050993;28;20131;-90
2023/12/28 06:23:07;;;;;;;3.65;3.45;;;13.80;99.90;;;;;;5048118;28;20109;-88
2023/12/28 06:25:33;;;;;;;3.75;3.55;;;13.70;99.90;;;;;;5051478;28;20080;-88
2023/12/28 06:27:59;;;;;;;3.53;3.33;;;13.80;99.90;;;;;;5032426;28;20612;-86
2023/12/28 06:30:24;;;;;;;3.80;3.60;;;13.70;99.90;;;;;;5050842;28;20102;-87
2023/12/28 06:32:50;;;;;;;3.55;3.35;;;13.80;99.90;;;;;;5050984;28;20068;-84
2023/12/28 06:35:16;;;;;;;3.53;3.33;;;13.90;99.90;;;;;;5050679;28;20131;-85
2023/12/28 06:37:45;;;;;;;3.90;3.70;;;13.90;99.90;;;;;;5034462;28;20052;-86
2023/12/28 06:40:14;;;;;;;3.67;3.47;;;13.80;99.90;;;;;;5049058;28;20443;-88
2023/12/28 06:42:43;;;;;;;3.55;3.35;;;13.90;99.90;;;;;;5031096;28;20044;-87
2023/12/28 06:45:10;;;;;;;4.28;4.07;;;13.90;99.90;;;;;;5049595;28;20559;-88
2023/12/28 06:47:35;;;;;;;3.95;3.75;;;13.90;99.90;;;;;;5033509;28;20048;-88
2023/12/28 06:50:01;;;;;;;4.18;3.97;;;13.90;99.90;;;;;;5032964;28;20047;-87
2023/12/28 06:52:27;;;;;;;3.97;3.78;;;13.90;99.90;;;;;;5045980;28;20484;-87
2023/12/28 06:54:53;;;;;;;3.50;3.30;;;13.80;99.90;;;;;;5065832;28;20048;-91
2023/12/28 06:57:19;;;;;;;3.40;3.20;;;13.90;99.90;;;;;;5032984;28;20048;-88
2023/12/28 06:59:45;;;;;;;3.33;3.13;;;13.90;99.90;;;;;;5031758;28;20440;-87
2023/12/28 07:02:10;;;;;;;3.42;3.22;;;13.90;99.90;;;;;;5049349;28;20109;-86
2023/12/28 07:04:36;;;;;;;4.25;4.05;;;13.90;99.90;;;;;;5048423;28;20058;-88
2023/12/28 07:07:02;;;;;;;3.60;3.40;;;13.90;99.90;;;;;;5032867;28;20517;-87
2023/12/28 07:09:28;;;;;;;3.55;3.35;;;13.90;99.90;;;;;;5031913;28;20094;-86
2023/12/28 07:11:59;;;;;;;3.22;3.03;;;13.90;99.90;;;;;;5065721;28;20032;-87
2023/12/28 07:14:24;;;;;;;3.75;3.55;;;13.90;99.90;;;;;;5046104;28;20033;-88
2023/12/28 07:16:50;;;;;;;3.65;3.45;;;13.90;99.90;;;;;;5046107;28;20056;-88
2023/12/28 07:19:16;;;;;;;3.78;3.58;;;13.90;99.90;;;;;;5036292;28;20509;-85
2023/12/28 07:21:42;;;;;;;3.50;3.30;;;13.90;99.90;;;;;;5048665;28;20065;-86
2023/12/28 07:24:07;;;;;;;3.78;3.58;;;14.00;99.90;;;;;;5048176;28;20143;-90
2023/12/28 07:26:36;;;;;;;2.95;2.85;;;13.90;99.90;;;;;;5032879;28;20040;-87
2023/12/28 07:29:04;;;;;;;4.45;4.20;;;14.00;99.90;;;;;;5049204;28;20044;-86
2023/12/28 07:31:31;;;;;;;8.88;4.70;;;14.00;99.90;;;;;;5032555;28;20052;-85
2023/12/28 07:33:57;;;;;;;3.17;2.97;;;14.10;99.90;;;;;;5032853;28;20508;-91
2023/12/28 07:36:23;;;;;;;4.30;4.05;;;14.10;99.90;;;;;;5035342;28;20045;-90
2023/12/28 07:38:48;;;;;;;3.55;3.35;;;14.00;99.90;;;;;;5048482;28;20033;-87
2023/12/28 07:41:15;;;;;;;3.85;3.65;;;14.10;99.90;;;;;;5047647;28;20048;-90
2023/12/28 07:43:44;;;;;;;4.40;4.18;;;14.10;99.90;;;;;;5047306;28;20053;-90
2023/12/28 07:46:09;;;;;;;4.07;3.88;;;14.00;99.90;;;;;;5064031;28;20504;-86
2023/12/28 07:48:35;;;;;;;6.03;5.70;;;14.00;99.90;;;;;;5033658;28;20044;-88
2023/12/28 07:51:05;;;;;;;2.80;2.70;;;14.00;99.90;;;;;;5048224;28;20041;-88
2023/12/28 07:53:31;;;;;;;3.88;3.67;;;14.00;99.90;;;;;;5049457;28;20068;-88
2023/12/28 07:55:59;;;;;;;4.90;4.63;;;14.00;99.90;;;;;;5048155;28;20170;-90
2023/12/28 07:58:25;;;;;;;2.78;2.67;;;14.10;99.90;;;;;;5049462;28;20052;-91
2023/12/28 08:00:51;;;;;;;3.55;3.35;;;14.00;99.90;;;;;;5049048;28;20044;-92
2023/12/28 08:03:20;;;;;;;5.80;5.47;;;14.00;99.90;;;;;;5031859;28;20563;-89
2023/12/28 08:05:46;;;;;;;2.65;2.55;;;14.00;99.90;;;;;;5049188;28;20076;-86
2023/12/28 08:08:11;;;;;;;5.50;5.20;;;14.00;99.90;;;;;;5049387;28;20123;-91
2023/12/28 08:10:37;;;;;;;4.93;4.63;;;14.00;99.90;;;;;;5033153;28;20057;-90
2023/12/28 08:13:03;;;;;;;2.88;2.78;;;14.10;99.90;;;;;;5048284;28;20115;-88
2023/12/28 08:15:29;;;;;;;5.53;5.22;;;14.10;99.90;;;;;;5048187;28;20080;-90
2023/12/28 08:17:54;;;;;;;4.88;4.63;;;14.10;99.90;;;;;;5031184;28;20047;-88
2023/12/28 08:20:20;;;;;;;6.75;6.38;;;14.10;99.90;;;;;;5048797;28;20153;-89
2023/12/28 08:22:46;;;;;;;3.15;2.95;;;14.20;99.90;;;;;;5030906;28;20044;-91
2023/12/28 08:25:11;;;;;;;3.00;2.90;;;14.20;99.90;;;;;;5032592;28;20044;-92
2023/12/28 08:27:43;;;;;;;3.40;3.20;;;14.10;99.90;;;;;;5054860;28;20140;-90
2023/12/28 08:30:12;;;;;;;5.55;5.25;;;14.20;99.90;;;;;;5050709;28;20051;-91
2023/12/28 08:32:41;;;;;;;4.43;4.18;;;14.10;99.90;;;;;;5049546;28;20464;-93
2023/12/28 08:35:10;;;;;;;4.15;3.95;;;14.20;99.90;;;;;;5021613;28;20036;-87
2023/12/28 08:37:36;;;;;;;6.05;5.72;;;14.10;99.90;;;;;;5034981;28;20506;-86
2023/12/28 08:40:05;;;;;;;5.32;5.03;;;14.20;99.90;;;;;;5033273;28;20068;-94
2023/12/28 08:42:31;;;;;;;3.35;3.15;;;14.20;99.90;;;;;;5032514;28;20054;-88
2023/12/28 08:44:56;;;;;;;3.38;3.17;;;14.20;99.90;;;;;;5031161;28;20052;-89
2023/12/28 08:47:22;;;;;;;5.13;4.82;;;14.20;99.90;;;;;;5049142;28;20045;-89
2023/12/28 08:49:48;;;;;;;6.30;5.93;;;14.20;99.90;;;;;;5032787;28;20389;-90
2023/12/28 08:52:14;;;;;;;3.78;3.58;;;14.30;99.90;;;;;;5052253;28;20049;-92
2023/12/28 08:54:43;;;;;;;2.80;2.70;;;14.20;99.90;;;;;;5035166;28;20436;-87
2023/12/28 08:57:09;;;;;;;5.25;4.95;;;14.30;99.90;;;;;;5035378;28;20044;-88
2023/12/28 08:59:38;;;;;;;6.63;6.22;;;14.30;99.90;;;;;;5035671;28;20379;-89
2023/12/28 09:02:07;;;;;;;3.75;3.55;;;14.30;99.90;;;;;;5046019;28;20055;-88
2023/12/28 09:04:39;;;;;;;3.90;3.70;;;14.40;99.90;;;;;;5031704;28;20682;-90
2023/12/28 09:07:13;;;;;;;8.20;7.78;;;14.40;99.90;;;;;;5031301;28;20068;-92
2023/12/28 09:09:39;;;;;;;7.40;6.97;;;14.40;99.90;;;;;;5029379;28;20131;-88
2023/12/28 09:12:11;;;;;;;3.08;2.90;;;14.30;99.90;;;;;;5036550;28;20515;-92
2023/12/28 09:14:37;;;;;;;2.70;2.60;;;14.30;99.90;;;;;;5051432;28;20545;-89
2023/12/28 09:17:03;;;;;;;5.43;5.13;;;14.30;99.90;;;;;;5037568;28;20044;-86
2023/12/28 09:19:29;;;;;;;3.45;3.25;;;14.40;99.90;;;;;;5033941;28;20055;-88
2023/12/28 09:21:55;;;;;;;5.00;4.70;;;14.40;99.90;;;;;;5036365;28;20048;-91
2023/12/28 09:24:20;;;;;;;7.82;7.40;;;14.40;99.90;;;;;;5034469;28;20169;-85
2023/12/28 09:26:46;;;;;;;4.25;4.05;;;14.40;99.90;;;;;;5037016;28;20051;-88
2023/12/28 09:29:12;;;;;;;8.48;8.02;;;14.40;99.90;;;;;;5035115;28;20036;-89
2023/12/28 09:31:39;;;;;;;7.35;6.95;;;14.40;99.90;;;;;;5051266;28;20044;-89
2023/12/28 09:34:05;;;;;;;4.28;4.07;;;14.50;99.90;;;;;;5066376;28;20044;-85
2023/12/28 09:36:31;;;;;;;7.10;6.70;;;14.50;99.90;;;;;;5049373;28;20497;-93
2023/12/28 09:39:00;;;;;;;3.88;3.67;;;14.40;99.90;;;;;;5051098;28;20040;-89
2023/12/28 09:41:29;;;;;;;5.70;5.40;;;14.40;99.90;;;;;;5035893;28;20632;-90
2023/12/28 09:44:05;;;;;;;3.70;3.50;;;14.50;99.90;;;;;;5034187;28;20048;-87
2023/12/28 09:46:32;;;;;;;8.13;7.70;;;14.50;99.90;;;;;;5052848;28;20111;-89
2023/12/28 09:49:01;;;;;;;6.18;5.88;;;14.50;99.90;;;;;;5048248;28;20120;-90
2023/12/28 09:51:27;;;;;;;7.18;6.78;;;14.40;99.90;;;;;;5030469;28;20049;-89
2023/12/28 09:53:53;;;;;;;6.97;6.63;;;14.40;99.90;;;;;;5030793;28;20052;-90
2023/12/28 09:56:19;;;;;;;8.70;8.23;;;14.40;99.90;;;;;;5047130;28;20550;-88
2023/12/28 09:58:49;;;;;;;6.75;6.43;;;14.40;99.90;;;;;;5063311;28;20044;-89
2023/12/28 10:01:15;;;;;;;9.15;8.68;;;14.40;99.90;;;;;;5045359;28;20127;-86
2023/12/28 10:03:41;;;;;;;5.85;5.55;;;14.30;99.90;;;;;;5048103;28;20041;-89
2023/12/28 10:06:09;;;;;;;6.20;5.90;;;14.30;99.90;;;;;;5032622;28;20056;-89
2023/12/28 10:08:35;;;;;;;5.40;5.10;;;14.30;99.90;;;;;;5041837;28;20037;-87
2023/12/28 10:11:02;;;;;;;3.95;3.75;;;14.20;99.90;;;;;;5047196;28;20060;-88
2023/12/28 10:13:28;;;;;;;5.63;5.32;;;14.20;99.90;;;;;;5028872;28;20596;-90
2023/12/28 10:15:58;;;;;;;4.15;3.95;;;14.20;99.90;;;;;;5029691;28;20714;-90
2023/12/28 10:18:24;;;;;;;4.80;4.60;;;14.20;99.90;;;;;;5029875;28;20378;-87
2023/12/28 10:20:54;;;;;;;5.25;4.95;;;14.20;99.90;;;;;;5049476;28;20051;-92
2023/12/28 10:23:23;;;;;;;5.03;4.72;;;14.20;99.90;;;;;;5046928;28;20048;-88
2023/12/28 10:25:52;;;;;;;5.72;5.43;;;14.20;99.90;;;;;;5031718;28;20143;-87
2023/12/28 10:28:21;;;;;;;6.67;6.37;;;14.20;99.90;;;;;;5033041;28;20516;-93
2023/12/28 10:30:47;;;;;;;8.77;8.27;;;14.20;99.90;;;;;;5032194;28;20076;-84
2023/12/28 10:33:19;;;;;;;5.10;4.80;;;14.20;99.90;;;;;;5048870;28;20575;-87
2023/12/28 10:35:45;;;;;;;5.55;5.25;;;14.20;99.90;;;;;;5028211;28;20052;-91
2023/12/28 10:38:16;;;;;;;5.18;4.88;;;14.30;99.90;;;;;;5032759;28;20048;-92
2023/12/28 10:40:44;;;;;;;5.10;4.80;;;14.30;99.90;;;;;;5033532;28;20155;-89
2023/12/28 10:43:14;;;;;;;9.95;9.43;;;14.30;99.90;;;;;;5031831;28;20130;-88
2023/12/28 10:45:40;;;;;;;8.13;7.70;;;14.30;99.90;;;;;;5042438;28;20052;-87
2023/12/28 10:48:08;;;;;;;7.55;7.15;;;14.40;99.90;;;;;;5029921;28;20048;-87
2023/12/28 10:50:49;;;;;;;8.20;7.78;;;14.30;99.90;;;;;;5045610;28;20103;-90
2023/12/28 10:53:17;;;;;;;6.38;6.07;;;14.40;99.90;;;;;;5045498;28;20497;-90
2023/12/28 10:55:59;;;;;;;6.45;6.15;;;14.40;99.90;;;;;;5047512;28;20792;-88
2023/12/28 10:58:40;;;;;;;5.65;5.35;;;14.50;99.90;;;;;;5031411;28;20079;-88
2023/12/28 11:01:09;;;;;;;4.65;4.45;;;14.50;99.90;;;;;;5046059;28;20060;-92
2023/12/28 11:03:39;;;;;;;7.82;7.43;;;14.40;99.90;;;;;;5042822;28;20617;-88
2023/12/28 11:06:06;;;;;;;8.40;7.95;;;14.40;99.90;;;;;;5033066;28;20040;-93
2023/12/28 11:08:34;;;;;;;7.78;7.38;;;14.40;99.90;;;;;;5036480;28;20076;-90
2023/12/28 11:11:04;;;;;;;6.15;5.85;;;14.40;99.90;;;;;;5047754;28;21747;-86
2023/12/28 11:13:32;;;;;;;4.78;4.57;;;14.40;99.90;;;;;;5027112;28;20044;-87
2023/12/28 11:15:59;;;;;;;4.45;4.25;;;14.40;99.90;;;;;;5045421;28;20533;-89
2023/12/28 11:18:29;;;;;;;8.02;7.60;;;14.40;99.90;;;;;;5048689;28;20102;-90
2023/12/28 11:20:55;;;;;;;6.85;6.53;;;14.40;99.90;;;;;;5033369;28;20474;-89
2023/12/28 11:23:21;;;;;;;4.60;4.40;;;14.40;99.90;;;;;;5043812;28;20135;-87
2023/12/28 11:25:47;;;;;;;8.52;8.07;;;14.50;99.90;;;;;;5030700;28;20052;-91
2023/12/28 11:28:14;;;;;;;7.50;7.10;;;14.50;99.90;;;;;;5029978;28;20040;-88
2023/12/28 11:30:42;;;;;;;8.73;8.27;;;14.50;99.90;;;;;;5030248;28;20098;-87
2023/12/28 11:33:10;;;;;;;5.95;5.65;;;14.40;99.90;;;;;;5031993;28;20047;-85
2023/12/28 11:35:38;;;;;;;9.60;9.10;;;14.40;99.90;;;;;;5027633;28;20055;-91
2023/12/28 11:38:10;;;;;;;3.83;3.63;;;14.40;99.90;;;;;;5032003;28;20063;-89
2023/12/28 11:40:49;;;;;;;9.43;8.93;;;14.40;99.90;;;;;;5050048;28;20123;-88
2023/12/28 11:43:21;;;;;;;5.18;4.88;;;14.40;99.90;;;;;;5029665;28;20158;-86
2023/12/28 11:45:50;;;;;;;8.32;7.93;;;14.40;99.90;;;;;;5045885;28;20561;-87
2023/12/28 11:48:24;;;;;;;6.70;6.38;;;14.40;99.90;;;;;;5030715;28;20513;-91
2023/12/28 11:50:50;;;;;;;5.40;5.10;;;14.30;99.90;;;;;;5031223;28;20068;-87
2023/12/28 11:53:17;;;;;;;8.13;7.72;;;14.30;99.90;;;;;;5046885;28;20087;-86
2023/12/28 11:55:43;;;;;;;8.15;7.72;;;14.30;99.90;;;;;;5049336;28;20048;-88
2023/12/28 11:58:12;;;;;;;6.60;6.20;;;14.30;99.90;;;;;;5044152;28;20072;-88
2023/12/28 12:00:37;;;;;;;5.13;4.82;;;14.30;99.90;;;;;;5028146;28;20052;-89
2023/12/28 12:03:03;;;;;;;6.10;5.80;;;14.30;99.90;;;;;;5046143;28;20122;-90
2023/12/28 12:05:29;;;;;;;8.68;8.20;;;14.30;99.90;;;;;;5053223;28;20067;-90
2023/12/28 12:07:56;;;;;;;5.38;5.07;;;14.30;99.90;;;;;;5032537;28;20045;-91
2023/12/28 12:10:22;;;;;;;8.10;7.70;;;14.20;99.90;;;;;;5050752;28;20084;-89
2023/12/28 12:12:51;;;;;;;11.52;10.93;;;14.20;99.90;;;;;;5033468;28;20068;-92
2023/12/28 12:15:17;;;;;;;6.97;6.57;;;14.30;99.90;;;;;;5053818;28;20755;-90
2023/12/28 12:17:42;;;;;;;6.25;5.95;;;14.20;99.90;;;;;;5034989;28;20182;-91
2023/12/28 12:20:09;;;;;;;6.90;6.50;;;14.20;99.90;;;;;;5032938;28;20044;-91
2023/12/28 12:22:40;;;;;;;9.88;9.35;;;14.20;99.90;;;;;;5031957;28;20052;-89
2023/12/28 12:25:07;;;;;;;10.00;9.48;;;14.30;99.90;;;;;;5049452;28;20043;-90
2023/12/28 12:27:34;;;;;;;7.80;7.40;;;14.20;99.90;;;;;;5037753;28;20049;-89
2023/12/28 12:30:02;;;;;;;9.15;8.65;;;14.20;99.90;;;;;;5038113;28;20261;-92
2023/12/28 12:32:29;;;;;;;5.70;5.40;;;14.20;99.90;;;;;;5037856;28;20041;-89
2023/12/28 12:34:58;;;;;;;6.32;6.03;;;14.20;99.90;;;;;;5054985;28;20054;-89
2023/12/28 12:37:27;;;;;;;6.40;6.10;;;14.30;99.90;;;;;;5034524;28;20127;-91
2023/12/28 12:39:54;;;;;;;9.70;9.18;;;14.20;99.90;;;;;;5050741;28;20363;-90
2023/12/28 12:42:20;;;;;;;8.23;7.75;;;14.30;99.90;;;;;;5049971;28;20048;-88
2023/12/28 12:44:45;;;;;;;5.47;5.18;;;14.40;99.90;;;;;;5032884;28;20044;-87